Bernard P — WDF2713 — position and weather

sailwx.info

Track history (hours):
 
Tides and Currents Weather Stations Pressure Air Temp Water Temp Dewpoint Dewpoint Depression Visibility Wind Speed Wind Dir Waves Ship Positions

Bernard P

Owner: Marquette Transportation Company Offshore LLC, Jefferson, LA. More information available from US FCC via Universal Licensing System and Coast Guard Vessel Documentation Center.

Last reported at 2017-Oct-10 05:12 UTC. Time now 2017-Oct-17 16:52 UTC.
Position N 29°29' W 094°52'.

Length 17 m.

Type: Other ship. MMSI: 367431060.

Date/timePositionNaut miles runAvg speedWind from/ knotsBaromVisibWave heightAir tempDewpointWater temp
2017-Oct-10 05:12N 29°29' W 094°52'1 6.8
2017-Oct-10 05:00N 29°30' W 094°53'3 6.5
2017-Oct-10 04:30N 29°33' W 094°55'3 6.7
2017-Oct-10 04:00N 29°36' W 094°57'3 6.9
2017-Oct-10 03:30N 29°39' W 094°58'3 6.6
2017-Oct-10 03:00N 29°42' W 094°60'3 5.9
2017-Oct-10 02:29N 29°44' W 095°03'  
2017-Oct-06 09:30N 29°44' W 095°07'0 0.0
2017-Oct-06 04:12N 29°44' W 095°07'5 2.1
2017-Oct-06 01:46N 29°43' W 095°01'2 6.6
2017-Oct-06 01:26N 29°42' W 094°59'3 5.7
2017-Oct-06 00:52N 29°41' W 094°56'2 4.2
2017-Oct-06 00:30N 29°42' W 094°55'1 2.4
2017-Oct-06 00:00N 29°43' W 094°56'0 0.0
2017-Oct-05 23:30N 29°43' W 094°56'0 0.0
2017-Oct-05 23:00N 29°43' W 094°56'0 0.0
2017-Oct-05 22:29N 29°43' W 094°56'0 0.0
2017-Oct-05 21:57N 29°43' W 094°56'0 0.0
2017-Oct-05 21:28N 29°43' W 094°56'0 0.0
2017-Oct-05 21:00N 29°43' W 094°56'0 0.0
2017-Oct-05 20:23N 29°43' W 094°56'0 0.0
2017-Oct-05 19:59N 29°43' W 094°56'0 0.0
2017-Oct-05 19:21N 29°43' W 094°56'0 0.0
2017-Oct-05 18:59N 29°43' W 094°56'0 0.0
2017-Oct-05 18:30N 29°43' W 094°56'0 0.0
2017-Oct-05 18:00N 29°43' W 094°56'0 0.0
2017-Oct-05 17:11N 29°43' W 094°56'0 0.0
2017-Oct-05 17:00N 29°43' W 094°56'0 0.0
2017-Oct-05 15:30N 29°43' W 094°56'0 0.0
2017-Oct-05 14:59N 29°43' W 094°56'0 0.0
2017-Oct-05 14:30N 29°43' W 094°56'0 0.0
2017-Oct-05 13:27N 29°43' W 094°56'0 0.0
2017-Oct-05 13:00N 29°43' W 094°56'0 0.0
2017-Oct-05 12:30N 29°43' W 094°56'0 0.0
2017-Oct-05 12:00N 29°43' W 094°56'0 0.0
2017-Oct-05 11:30N 29°43' W 094°56'0 0.0
2017-Oct-05 11:00N 29°43' W 094°56'0 0.0
2017-Oct-05 10:30N 29°43' W 094°56'0 0.0
2017-Oct-05 09:59N 29°43' W 094°56'0 0.0
2017-Oct-05 09:28N 29°43' W 094°56'0 0.0
2017-Oct-05 09:00N 29°43' W 094°56'0 0.0
2017-Oct-05 08:30N 29°43' W 094°56'0 0.0
2017-Oct-05 08:00N 29°43' W 094°56'0 0.0
2017-Oct-05 07:30N 29°43' W 094°56'0 0.0
2017-Oct-05 06:59N 29°43' W 094°56'0 0.0
2017-Oct-05 06:30N 29°43' W 094°56'0 0.0
2017-Oct-05 06:00N 29°43' W 094°56'0 0.0
2017-Oct-05 05:30N 29°43' W 094°56'0 0.0
2017-Oct-05 05:00N 29°43' W 094°56'0 0.0
2017-Oct-05 04:29N 29°43' W 094°56'0 0.0
2017-Oct-05 03:59N 29°43' W 094°56'0 0.0
2017-Oct-05 03:29N 29°43' W 094°56'0 0.0
2017-Oct-05 02:58N 29°43' W 094°56'0 0.0
2017-Oct-05 02:30N 29°43' W 094°56'0 0.0
2017-Oct-05 02:00N 29°43' W 094°56'0 0.0
2017-Oct-05 01:29N 29°43' W 094°56'0 0.0
2017-Oct-05 00:53N 29°43' W 094°56'0 0.0
2017-Oct-05 00:30N 29°43' W 094°56'0 0.0
2017-Oct-04 23:55N 29°43' W 094°56'0 0.0
2017-Oct-04 23:28N 29°43' W 094°56'0 0.3
2017-Oct-04 23:00N 29°43' W 094°56'0 0.0
2017-Oct-04 18:07N 29°43' W 094°56'0 0.0
2017-Oct-04 15:11N 29°43' W 094°56'0 0.0
2017-Oct-03 23:07N 29°43' W 094°56'0 0.0
2017-Oct-03 20:51N 29°43' W 094°56'0 0.0
2017-Oct-03 20:30N 29°43' W 094°56'0 0.0
2017-Oct-03 18:49N 29°43' W 094°56'0 0.0
2017-Oct-03 18:27N 29°43' W 094°56'0 0.0
2017-Oct-03 18:00N 29°43' W 094°56'0 0.0
2017-Oct-03 17:30N 29°43' W 094°56'0 0.0
2017-Oct-03 17:00N 29°43' W 094°56'0 0.0
2017-Oct-03 16:30N 29°43' W 094°56'0 0.0
2017-Oct-03 04:08N 29°43' W 094°56'0 0.0
2017-Oct-03 03:54N 29°43' W 094°56'0 0.0
2017-Oct-03 03:26N 29°43' W 094°56'0 0.0
2017-Oct-02 20:02N 29°43' W 094°56'0 0.0
2017-Oct-02 16:07N 29°43' W 094°56'0 0.0
2017-Oct-02 15:45N 29°43' W 094°56'0 0.0
2017-Oct-02 15:11N 29°43' W 094°56'0 0.0
2017-Oct-02 15:00N 29°43' W 094°56'0 0.0
2017-Oct-02 14:27N 29°43' W 094°56'0 0.0
2017-Oct-02 07:51N 29°43' W 094°56'0 0.0
2017-Oct-02 07:23N 29°43' W 094°56'0 0.0
2017-Oct-02 06:50N 29°43' W 094°56'0 0.0
2017-Oct-02 05:37N 29°43' W 094°56'0 0.1
2017-Oct-02 05:29N 29°43' W 094°56'0 0.0
2017-Oct-01 20:44N 29°43' W 094°56'0 0.0
2017-Oct-01 20:28N 29°43' W 094°56'0 0.0
2017-Oct-01 19:55N 29°43' W 094°56'0 0.0
2017-Oct-01 19:24N 29°43' W 094°56'0 0.0
2017-Oct-01 18:57N 29°43' W 094°56'0 0.0
2017-Oct-01 18:30N 29°43' W 094°56'0 0.0
2017-Oct-01 16:53N 29°43' W 094°56'0 0.0
2017-Oct-01 14:16N 29°43' W 094°56'0 0.0
2017-Oct-01 13:59N 29°43' W 094°56'0 0.0
2017-Oct-01 13:29N 29°43' W 094°56'0 0.0
2017-Oct-01 13:00N 29°43' W 094°56'0 0.0
2017-Oct-01 12:30N 29°43' W 094°56'0 0.0
2017-Oct-01 11:02N 29°43' W 094°56'0 0.1
2017-Oct-01 10:53N 29°43' W 094°56'0 0.0
2017-Oct-01 10:13N 29°43' W 094°56'0 0.0
2017-Oct-01 09:57N 29°43' W 094°56'0 0.0
2017-Oct-01 09:22N 29°43' W 094°56'0 0.0
2017-Oct-01 08:50N 29°43' W 094°56'0 0.0
2017-Oct-01 08:30N 29°43' W 094°56'0 0.0
2017-Oct-01 07:56N 29°43' W 094°56'0 0.0
2017-Oct-01 07:26N 29°43' W 094°56'0 0.0
2017-Oct-01 07:00N 29°43' W 094°56'0 0.0
2017-Oct-01 06:30N 29°43' W 094°56'0 0.0
2017-Oct-01 06:00N 29°43' W 094°56'0 0.0
2017-Oct-01 05:30N 29°43' W 094°56'0 0.0
2017-Oct-01 05:00N 29°43' W 094°56'0 0.0
2017-Oct-01 04:30N 29°43' W 094°56'0 0.0
2017-Oct-01 04:00N 29°43' W 094°56'0 0.0
2017-Oct-01 03:30N 29°43' W 094°56'0 0.0
2017-Oct-01 03:00N 29°43' W 094°56'  
Track history (hours):
 
Tides and Currents Weather Stations Pressure Air Temp Water Temp Dewpoint Dewpoint Depression Visibility Wind Speed Wind Dir Waves Ship Positions

Bernard P

Owner: Marquette Transportation Company Offshore LLC, Jefferson, LA. More information available from US FCC via Universal Licensing System and Coast Guard Vessel Documentation Center.

Last reported at 2017-Oct-10 05:12 UTC. Time now 2017-Oct-17 16:52 UTC.
Position N 29°29' W 094°52'.

Length 17 m.

Type: Other ship. MMSI: 367431060.

Date/timePositionNaut miles runAvg speedWind from/ knotsBaromVisibWave heightAir tempDewpointWater temp
2017-Oct-10 05:12N 29°29' W 094°52'1 6.8
2017-Oct-10 05:00N 29°30' W 094°53'3 6.5
2017-Oct-10 04:30N 29°33' W 094°55'3 6.7
2017-Oct-10 04:00N 29°36' W 094°57'3 6.9
2017-Oct-10 03:30N 29°39' W 094°58'3 6.6
2017-Oct-10 03:00N 29°42' W 094°60'3 5.9
2017-Oct-10 02:29N 29°44' W 095°03'  
2017-Oct-06 09:30N 29°44' W 095°07'0 0.0
2017-Oct-06 04:12N 29°44' W 095°07'5 2.1
2017-Oct-06 01:46N 29°43' W 095°01'2 6.6
2017-Oct-06 01:26N 29°42' W 094°59'3 5.7
2017-Oct-06 00:52N 29°41' W 094°56'2 4.2
2017-Oct-06 00:30N 29°42' W 094°55'1 2.4
2017-Oct-06 00:00N 29°43' W 094°56'0 0.0
2017-Oct-05 23:30N 29°43' W 094°56'0 0.0
2017-Oct-05 23:00N 29°43' W 094°56'0 0.0
2017-Oct-05 22:29N 29°43' W 094°56'0 0.0
2017-Oct-05 21:57N 29°43' W 094°56'0 0.0
2017-Oct-05 21:28N 29°43' W 094°56'0 0.0
2017-Oct-05 21:00N 29°43' W 094°56'0 0.0
2017-Oct-05 20:23N 29°43' W 094°56'0 0.0
2017-Oct-05 19:59N 29°43' W 094°56'0 0.0
2017-Oct-05 19:21N 29°43' W 094°56'0 0.0
2017-Oct-05 18:59N 29°43' W 094°56'0 0.0
2017-Oct-05 18:30N 29°43' W 094°56'0 0.0
2017-Oct-05 18:00N 29°43' W 094°56'0 0.0
2017-Oct-05 17:11N 29°43' W 094°56'0 0.0
2017-Oct-05 17:00N 29°43' W 094°56'0 0.0
2017-Oct-05 15:30N 29°43' W 094°56'0 0.0
2017-Oct-05 14:59N 29°43' W 094°56'0 0.0
2017-Oct-05 14:30N 29°43' W 094°56'0 0.0
2017-Oct-05 13:27N 29°43' W 094°56'0 0.0
2017-Oct-05 13:00N 29°43' W 094°56'0 0.0
2017-Oct-05 12:30N 29°43' W 094°56'0 0.0
2017-Oct-05 12:00N 29°43' W 094°56'0 0.0
2017-Oct-05 11:30N 29°43' W 094°56'0 0.0
2017-Oct-05 11:00N 29°43' W 094°56'0 0.0
2017-Oct-05 10:30N 29°43' W 094°56'0 0.0
2017-Oct-05 09:59N 29°43' W 094°56'0 0.0
2017-Oct-05 09:28N 29°43' W 094°56'0 0.0
2017-Oct-05 09:00N 29°43' W 094°56'0 0.0
2017-Oct-05 08:30N 29°43' W 094°56'0 0.0
2017-Oct-05 08:00N 29°43' W 094°56'0 0.0
2017-Oct-05 07:30N 29°43' W 094°56'0 0.0
2017-Oct-05 06:59N 29°43' W 094°56'0 0.0
2017-Oct-05 06:30N 29°43' W 094°56'0 0.0
2017-Oct-05 06:00N 29°43' W 094°56'0 0.0
2017-Oct-05 05:30N 29°43' W 094°56'0 0.0
2017-Oct-05 05:00N 29°43' W 094°56'0 0.0
2017-Oct-05 04:29N 29°43' W 094°56'0 0.0
2017-Oct-05 03:59N 29°43' W 094°56'0 0.0
2017-Oct-05 03:29N 29°43' W 094°56'0 0.0
2017-Oct-05 02:58N 29°43' W 094°56'0 0.0
2017-Oct-05 02:30N 29°43' W 094°56'0 0.0
2017-Oct-05 02:00N 29°43' W 094°56'0 0.0
2017-Oct-05 01:29N 29°43' W 094°56'0 0.0
2017-Oct-05 00:53N 29°43' W 094°56'0 0.0
2017-Oct-05 00:30N 29°43' W 094°56'0 0.0
2017-Oct-04 23:55N 29°43' W 094°56'0 0.0
2017-Oct-04 23:28N 29°43' W 094°56'0 0.3
2017-Oct-04 23:00N 29°43' W 094°56'0 0.0
2017-Oct-04 18:07N 29°43' W 094°56'0 0.0
2017-Oct-04 15:11N 29°43' W 094°56'0 0.0
2017-Oct-03 23:07N 29°43' W 094°56'0 0.0
2017-Oct-03 20:51N 29°43' W 094°56'0 0.0
2017-Oct-03 20:30N 29°43' W 094°56'0 0.0
2017-Oct-03 18:49N 29°43' W 094°56'0 0.0
2017-Oct-03 18:27N 29°43' W 094°56'0 0.0
2017-Oct-03 18:00N 29°43' W 094°56'0 0.0
2017-Oct-03 17:30N 29°43' W 094°56'0 0.0
2017-Oct-03 17:00N 29°43' W 094°56'0 0.0
2017-Oct-03 16:30N 29°43' W 094°56'0 0.0
2017-Oct-03 04:08N 29°43' W 094°56'0 0.0
2017-Oct-03 03:54N 29°43' W 094°56'0 0.0
2017-Oct-03 03:26N 29°43' W 094°56'0 0.0
2017-Oct-02 20:02N 29°43' W 094°56'0 0.0
2017-Oct-02 16:07N 29°43' W 094°56'0 0.0
2017-Oct-02 15:45N 29°43' W 094°56'0 0.0
2017-Oct-02 15:11N 29°43' W 094°56'0 0.0
2017-Oct-02 15:00N 29°43' W 094°56'0 0.0
2017-Oct-02 14:27N 29°43' W 094°56'0 0.0
2017-Oct-02 07:51N 29°43' W 094°56'0 0.0
2017-Oct-02 07:23N 29°43' W 094°56'0 0.0
2017-Oct-02 06:50N 29°43' W 094°56'0 0.0
2017-Oct-02 05:37N 29°43' W 094°56'0 0.1
2017-Oct-02 05:29N 29°43' W 094°56'0 0.0
2017-Oct-01 20:44N 29°43' W 094°56'0 0.0
2017-Oct-01 20:28N 29°43' W 094°56'0 0.0
2017-Oct-01 19:55N 29°43' W 094°56'0 0.0
2017-Oct-01 19:24N 29°43' W 094°56'0 0.0
2017-Oct-01 18:57N 29°43' W 094°56'0 0.0
2017-Oct-01 18:30N 29°43' W 094°56'0 0.0
2017-Oct-01 16:53N 29°43' W 094°56'0 0.0
2017-Oct-01 14:16N 29°43' W 094°56'0 0.0
2017-Oct-01 13:59N 29°43' W 094°56'0 0.0
2017-Oct-01 13:29N 29°43' W 094°56'0 0.0
2017-Oct-01 13:00N 29°43' W 094°56'0 0.0
2017-Oct-01 12:30N 29°43' W 094°56'0 0.0
2017-Oct-01 11:02N 29°43' W 094°56'0 0.1
2017-Oct-01 10:53N 29°43' W 094°56'0 0.0
2017-Oct-01 10:13N 29°43' W 094°56'0 0.0
2017-Oct-01 09:57N 29°43' W 094°56'0 0.0
2017-Oct-01 09:22N 29°43' W 094°56'0 0.0
2017-Oct-01 08:50N 29°43' W 094°56'0 0.0
2017-Oct-01 08:30N 29°43' W 094°56'0 0.0
2017-Oct-01 07:56N 29°43' W 094°56'0 0.0
2017-Oct-01 07:26N 29°43' W 094°56'0 0.0
2017-Oct-01 07:00N 29°43' W 094°56'0 0.0
2017-Oct-01 06:30N 29°43' W 094°56'0 0.0
2017-Oct-01 06:00N 29°43' W 094°56'0 0.0
2017-Oct-01 05:30N 29°43' W 094°56'0 0.0
2017-Oct-01 05:00N 29°43' W 094°56'0 0.0
2017-Oct-01 04:30N 29°43' W 094°56'0 0.0
2017-Oct-01 04:00N 29°43' W 094°56'0 0.0
2017-Oct-01 03:30N 29°43' W 094°56'0 0.0
2017-Oct-01 03:00N 29°43' W 094°56'  

Dump ship's entire track history